createdAt,value
2023-02-13T00:00:23.518Z,94.57
2023-02-13T00:02:50.047Z,93.78
2023-02-13T00:05:16.472Z,93.78
2023-02-13T00:07:42.865Z,86.53
2023-02-13T00:10:09.447Z,91.90
2023-02-13T00:12:35.798Z,90.65
2023-02-13T00:15:02.813Z,80.15
2023-02-13T00:17:29.217Z,86.20
2023-02-13T00:19:55.621Z,85.90
2023-02-13T00:22:22.162Z,97.88
2023-02-13T00:24:48.614Z,96.03
2023-02-13T00:27:15.071Z,92.50
2023-02-13T00:29:41.545Z,87.53
2023-02-13T00:32:08.414Z,90.93
2023-02-13T00:34:35.099Z,93.10
2023-02-13T00:37:01.467Z,92.60
2023-02-13T00:39:27.825Z,86.18
2023-02-13T00:41:54.241Z,79.20
2023-02-13T00:44:20.596Z,79.05
2023-02-13T00:46:47.009Z,75.35
2023-02-13T00:49:13.455Z,78.03
2023-02-13T00:51:39.838Z,80.88
2023-02-13T00:54:06.199Z,75.93
2023-02-13T00:56:32.518Z,71.82
2023-02-13T00:58:58.860Z,69.63
2023-02-13T01:01:25.352Z,73.90
2023-02-13T01:03:51.767Z,73.03
2023-02-13T01:06:18.270Z,74.50
2023-02-13T01:08:44.996Z,76.43
2023-02-13T01:11:11.401Z,74.72
2023-02-13T01:13:38.246Z,67.70
2023-02-13T01:16:04.776Z,65.97
2023-02-13T01:18:31.349Z,63.78
2023-02-13T01:21:02.696Z,72.95
2023-02-13T01:23:33.382Z,62.58
2023-02-13T01:26:00.206Z,61.22
2023-02-13T01:28:26.874Z,69.05
2023-02-13T01:30:57.306Z,61.88
2023-02-13T01:33:24.908Z,70.30
2023-02-13T01:35:51.474Z,73.32
2023-02-13T01:38:17.973Z,66.32
2023-02-13T01:40:45.880Z,64.50
2023-02-13T01:43:12.484Z,71.88
2023-02-13T01:45:38.972Z,74.20
2023-02-13T01:48:07.254Z,68.97
2023-02-13T01:50:39.327Z,64.30
2023-02-13T01:53:11.844Z,65.90
2023-02-13T01:55:58.414Z,69.70
2023-02-13T01:58:26.976Z,59.70
2023-02-13T02:00:53.337Z,60.38
2023-02-13T02:03:25.115Z,53.35
2023-02-13T02:05:52.326Z,59.13
2023-02-13T02:08:19.086Z,60.17
2023-02-13T02:10:45.570Z,58.63
2023-02-13T02:13:13.479Z,56.25
2023-02-13T02:15:42.605Z,56.38
2023-02-13T02:18:13.876Z,51.35
2023-02-13T02:20:43.340Z,52.03
2023-02-13T02:23:19.059Z,47.42
2023-02-13T02:26:03.871Z,56.97
2023-02-13T02:28:30.545Z,55.40
2023-02-13T02:31:19.250Z,53.05
2023-02-13T02:33:51.689Z,52.33
2023-02-13T02:36:27.184Z,55.83
2023-02-13T02:38:53.556Z,54.33
2023-02-13T02:41:42.672Z,57.50
2023-02-13T02:44:27.359Z,47.53
2023-02-13T02:47:19.597Z,50.50
2023-02-13T02:49:59.322Z,54.80
2023-02-13T02:52:45.888Z,54.13
2023-02-13T02:55:31.389Z,55.08
2023-02-13T02:58:37.025Z,61.58
2023-02-13T03:01:23.959Z,56.70
2023-02-13T03:04:26.216Z,63.30
2023-02-13T03:06:58.324Z,56.85
2023-02-13T03:09:47.824Z,53.28
2023-02-13T03:12:36.198Z,56.35
2023-02-13T03:15:02.821Z,49.40
2023-02-13T03:17:47.980Z,60.67
2023-02-13T03:20:36.412Z,53.97
2023-02-13T03:23:02.780Z,51.63
2023-02-13T03:25:49.410Z,59.53
2023-02-13T03:28:40.717Z,51.05
2023-02-13T03:31:15.434Z,52.05
2023-02-13T03:33:57.160Z,50.37
2023-02-13T03:36:48.533Z,50.40
2023-02-13T03:39:30.251Z,55.75
2023-02-13T03:42:06.202Z,53.78
2023-02-13T03:45:09.553Z,50.10
2023-02-13T03:47:36.747Z,52.40
2023-02-13T03:50:07.119Z,48.42
2023-02-13T03:52:51.900Z,49.47
2023-02-13T03:55:36.927Z,49.72
2023-02-13T03:58:24.390Z,40.28
2023-02-13T04:00:52.640Z,55.35
2023-02-13T04:03:28.115Z,54.20
2023-02-13T04:05:58.332Z,51.25
2023-02-13T04:08:24.681Z,52.42
2023-02-13T04:10:54.003Z,52.65
2023-02-13T04:13:42.617Z,50.67
2023-02-13T04:16:16.226Z,44.83
2023-02-13T04:18:43.240Z,49.13
2023-02-13T04:21:09.625Z,46.08
2023-02-13T04:23:37.053Z,48.15
2023-02-13T04:26:06.099Z,50.20
2023-02-13T04:28:32.620Z,46.20
2023-02-13T04:30:59.431Z,47.45
2023-02-13T04:33:26.080Z,40.50
2023-02-13T04:35:52.393Z,43.25
2023-02-13T04:38:18.782Z,38.70
2023-02-13T04:40:45.199Z,42.72
2023-02-13T04:43:11.619Z,45.17
2023-02-13T04:45:38.263Z,42.95
2023-02-13T04:48:04.625Z,39.83
2023-02-13T04:50:30.970Z,39.05
2023-02-13T04:52:57.868Z,34.58
2023-02-13T04:55:24.921Z,35.53
2023-02-13T04:57:54.770Z,28.88
2023-02-13T05:00:21.673Z,30.30
2023-02-13T05:02:48.058Z,29.52
2023-02-13T05:05:14.491Z,30.20
2023-02-13T05:07:41.492Z,28.08
2023-02-13T05:10:08.182Z,26.45
2023-02-13T05:12:34.485Z,32.35
2023-02-13T05:15:01.121Z,32.63
2023-02-13T05:17:28.379Z,28.65
2023-02-13T05:19:54.925Z,27.42
2023-02-13T05:22:39.916Z,26.90
2023-02-13T05:25:06.370Z,29.85
2023-02-13T05:27:32.757Z,24.90
2023-02-13T05:29:59.323Z,27.90
2023-02-13T05:32:25.924Z,27.85
2023-02-13T05:34:54.762Z,29.02
2023-02-13T05:37:21.097Z,26.30
2023-02-13T05:39:47.538Z,30.30
2023-02-13T05:42:13.986Z,29.27
2023-02-13T05:44:40.334Z,30.90
2023-02-13T05:47:06.698Z,27.30
2023-02-13T05:49:33.060Z,28.60
2023-02-13T05:51:59.396Z,32.10
2023-02-13T05:54:25.768Z,27.58
2023-02-13T05:56:52.160Z,32.35
2023-02-13T05:59:18.536Z,25.42
2023-02-13T06:01:45.048Z,28.17
2023-02-13T06:04:11.459Z,28.65
2023-02-13T06:06:37.888Z,29.55
2023-02-13T06:09:04.763Z,26.05
2023-02-13T06:11:31.250Z,29.35
2023-02-13T06:13:57.587Z,32.15
2023-02-13T06:16:24.064Z,32.05
2023-02-13T06:18:50.606Z,32.08
2023-02-13T06:21:17.028Z,30.80
2023-02-13T06:23:44.522Z,30.10
2023-02-13T06:26:10.968Z,33.58
2023-02-13T06:28:37.393Z,29.35
2023-02-13T06:31:04.157Z,29.95
2023-02-13T06:33:30.964Z,31.67
2023-02-13T06:35:57.406Z,32.85
2023-02-13T06:38:24.281Z,33.45
2023-02-13T06:40:51.477Z,32.72
2023-02-13T06:43:18.148Z,36.22
2023-02-13T06:45:46.801Z,33.85
2023-02-13T06:48:13.605Z,37.42
2023-02-13T06:50:39.954Z,40.17
2023-02-13T06:53:07.940Z,40.97
2023-02-13T06:55:34.298Z,42.33
2023-02-13T06:58:00.670Z,46.15
2023-02-13T07:00:27.268Z,42.42
2023-02-13T07:02:53.719Z,46.60
2023-02-13T07:05:20.234Z,47.92
2023-02-13T07:07:46.719Z,52.55
2023-02-13T07:10:13.889Z,51.80
2023-02-13T07:12:40.661Z,59.22
2023-02-13T07:15:08.302Z,57.78
2023-02-13T07:17:34.815Z,57.13
2023-02-13T07:20:01.240Z,55.67
2023-02-13T07:22:30.053Z,65.43
2023-02-13T07:24:56.505Z,57.35
2023-02-13T07:27:22.890Z,63.03
2023-02-13T07:29:49.238Z,60.17
2023-02-13T07:32:15.790Z,48.00
2023-02-13T07:34:55.825Z,46.20
2023-02-13T07:37:32.893Z,34.60
2023-02-13T07:39:59.527Z,41.35
2023-02-13T07:42:25.938Z,42.60
2023-02-13T07:44:52.309Z,36.08
2023-02-13T07:47:21.879Z,37.15
2023-02-13T07:49:48.265Z,34.17
2023-02-13T07:52:14.690Z,37.03
2023-02-13T07:54:47.405Z,36.88
2023-02-13T07:57:15.398Z,33.70
2023-02-13T07:59:41.789Z,35.33
2023-02-13T08:02:12.671Z,39.60
2023-02-13T08:04:39.307Z,38.95
2023-02-13T08:07:05.641Z,36.22
2023-02-13T08:09:50.796Z,42.53
2023-02-13T08:12:17.129Z,39.60
2023-02-13T08:14:43.495Z,40.72
2023-02-13T08:17:09.840Z,41.15
2023-02-13T08:19:36.185Z,44.65
2023-02-13T08:22:04.965Z,37.88
2023-02-13T08:24:32.285Z,41.22
2023-02-13T08:26:58.632Z,33.35
2023-02-13T08:29:24.976Z,45.85
2023-02-13T08:31:51.435Z,40.60
2023-02-13T08:34:17.812Z,37.05
2023-02-13T08:36:44.211Z,38.08
2023-02-13T08:39:10.711Z,37.20
2023-02-13T08:41:37.255Z,36.75
2023-02-13T08:44:03.723Z,39.92
2023-02-13T08:46:30.165Z,36.92
2023-02-13T08:48:56.663Z,38.13
2023-02-13T08:51:23.172Z,35.47
2023-02-13T08:53:49.637Z,39.55
2023-02-13T08:56:15.981Z,27.27
2023-02-13T08:58:42.355Z,34.90
2023-02-13T09:01:08.788Z,33.67
2023-02-13T09:03:35.356Z,35.85
2023-02-13T09:06:02.416Z,32.08
2023-02-13T09:08:28.911Z,32.80
2023-02-13T09:10:56.295Z,28.52
2023-02-13T09:13:22.694Z,24.52
2023-02-13T09:15:48.989Z,26.73
2023-02-13T09:18:15.735Z,27.23
2023-02-13T09:20:42.242Z,27.45
2023-02-13T09:23:08.817Z,29.50
2023-02-13T09:25:35.165Z,30.35
2023-02-13T09:28:01.609Z,32.25
2023-02-13T09:30:28.000Z,30.55
2023-02-13T09:32:55.046Z,27.73
2023-02-13T09:35:21.968Z,33.72
2023-02-13T09:37:48.303Z,31.75
2023-02-13T09:40:24.077Z,32.80
2023-02-13T09:42:50.983Z,27.20
2023-02-13T09:45:19.689Z,24.30
2023-02-13T09:47:46.478Z,34.35
2023-02-13T09:50:24.443Z,30.85
2023-02-13T09:52:52.811Z,26.75
2023-02-13T09:55:21.620Z,29.00
2023-02-13T09:58:00.954Z,26.67
2023-02-13T10:00:36.198Z,26.08
2023-02-13T10:03:05.577Z,28.20
2023-02-13T10:05:47.117Z,28.58
2023-02-13T10:08:21.916Z,28.67
2023-02-13T10:11:04.213Z,27.05
2023-02-13T10:13:58.627Z,29.35
2023-02-13T10:16:37.181Z,28.20
2023-02-13T10:19:06.771Z,29.42
2023-02-13T10:21:35.853Z,31.73
2023-02-13T10:24:09.034Z,28.63
2023-02-13T10:26:42.727Z,27.73
2023-02-13T10:29:40.168Z,33.30
2023-02-13T10:32:08.819Z,32.92
2023-02-13T10:34:38.268Z,32.25
2023-02-13T10:37:09.727Z,29.42
2023-02-13T10:39:36.113Z,29.80
2023-02-13T10:42:16.879Z,21.25
2023-02-13T10:44:43.214Z,22.25
2023-02-13T10:47:09.682Z,20.58
2023-02-13T10:49:45.170Z,18.30
2023-02-13T10:52:11.529Z,16.75
2023-02-13T10:54:51.873Z,16.83
2023-02-13T10:57:28.465Z,17.98
2023-02-13T10:59:58.019Z,17.25
2023-02-13T11:02:28.682Z,21.25
2023-02-13T11:05:02.532Z,19.40
2023-02-13T11:07:30.330Z,16.23
2023-02-13T11:10:00.110Z,16.90
2023-02-13T11:12:26.555Z,23.05
2023-02-13T11:14:57.263Z,19.67
2023-02-13T11:17:24.684Z,21.02
2023-02-13T11:19:52.678Z,14.95
2023-02-13T11:22:30.339Z,14.27
2023-02-13T11:24:58.778Z,17.27
2023-02-13T11:27:35.505Z,13.50
2023-02-13T11:30:05.060Z,12.07
2023-02-13T11:32:32.391Z,12.38
2023-02-13T11:35:07.152Z,12.63
2023-02-13T11:37:33.618Z,15.27
2023-02-13T11:40:00.685Z,9.13
2023-02-13T11:42:35.602Z,9.23
2023-02-13T11:45:20.541Z,9.23
2023-02-13T11:47:47.130Z,8.63
2023-02-13T11:50:34.950Z,9.85
2023-02-13T11:53:01.526Z,9.00
2023-02-13T11:55:30.474Z,8.88
2023-02-13T11:57:58.095Z,9.93
2023-02-13T12:00:37.771Z,10.02
2023-02-13T12:03:25.501Z,9.45
2023-02-13T12:06:03.240Z,9.95
2023-02-13T12:08:30.571Z,9.52
2023-02-13T12:10:58.439Z,9.73
2023-02-13T12:13:24.769Z,10.98
2023-02-13T12:15:57.756Z,10.43
2023-02-13T12:18:36.136Z,11.55
2023-02-13T12:21:15.046Z,10.40
2023-02-13T12:23:41.461Z,10.50
2023-02-13T12:26:15.176Z,9.90
2023-02-13T12:28:51.534Z,20.70
2023-02-13T12:31:17.996Z,13.38
2023-02-13T12:33:51.681Z,11.15
2023-02-13T12:36:18.055Z,11.15
2023-02-13T12:38:47.437Z,11.05
2023-02-13T12:41:15.293Z,11.80
2023-02-13T12:43:44.717Z,13.38
2023-02-13T12:46:31.597Z,12.45
2023-02-13T12:48:57.904Z,12.80
2023-02-13T12:51:37.864Z,15.18
2023-02-13T12:54:27.217Z,14.80
2023-02-13T12:57:12.693Z,14.00
2023-02-13T12:59:42.140Z,13.85
2023-02-13T13:02:20.798Z,19.00
2023-02-13T13:04:56.576Z,16.20
2023-02-13T13:07:31.400Z,15.65
2023-02-13T13:10:09.118Z,17.13
2023-02-13T13:12:38.354Z,14.00
2023-02-13T13:15:05.441Z,16.15
2023-02-13T13:17:34.611Z,13.93
2023-02-13T13:20:19.759Z,14.82
2023-02-13T13:22:53.962Z,15.17
2023-02-13T13:25:23.744Z,13.80
2023-02-13T13:27:53.072Z,16.90
2023-02-13T13:30:22.695Z,18.08
2023-02-13T13:32:52.388Z,18.75
2023-02-13T13:35:20.038Z,17.95
2023-02-13T13:38:02.618Z,18.42
2023-02-13T13:40:34.170Z,18.38
2023-02-13T13:43:20.897Z,18.73
2023-02-13T13:45:47.316Z,17.08
2023-02-13T13:48:13.614Z,21.52
2023-02-13T13:50:41.814Z,23.45
2023-02-13T13:53:15.970Z,22.55
2023-02-13T13:55:58.206Z,21.70
2023-02-13T13:58:33.464Z,22.85
2023-02-13T14:01:15.786Z,18.60
2023-02-13T14:03:46.297Z,18.50
2023-02-13T14:06:17.017Z,22.25
2023-02-13T14:08:46.364Z,19.48
2023-02-13T14:11:25.137Z,23.65
2023-02-13T14:13:52.089Z,22.95
2023-02-13T14:16:37.323Z,21.15
2023-02-13T14:19:04.273Z,22.88
2023-02-13T14:21:30.643Z,22.80
2023-02-13T14:24:00.669Z,21.92
2023-02-13T14:26:52.413Z,21.58
2023-02-13T14:29:46.956Z,18.88
2023-02-13T14:32:18.187Z,20.63
2023-02-13T14:34:51.093Z,25.80
2023-02-13T14:37:29.734Z,22.85
2023-02-13T14:40:17.592Z,24.92
2023-02-13T14:43:04.419Z,20.38
2023-02-13T14:45:32.696Z,22.42
2023-02-13T14:48:04.517Z,22.65
2023-02-13T14:50:51.135Z,21.20
2023-02-13T14:53:21.145Z,22.42
2023-02-13T14:55:49.517Z,21.52
2023-02-13T14:58:28.336Z,23.98
2023-02-13T15:00:54.666Z,24.33
2023-02-13T15:03:21.265Z,22.73
2023-02-13T15:05:51.126Z,28.90
2023-02-13T15:08:21.855Z,21.83
2023-02-13T15:10:52.773Z,21.70
2023-02-13T15:13:31.465Z,24.45
2023-02-13T15:15:59.857Z,24.85
2023-02-13T15:18:28.580Z,25.08
2023-02-13T15:20:56.605Z,25.15
2023-02-13T15:23:26.512Z,24.73
2023-02-13T15:25:57.167Z,22.67
2023-02-13T15:28:24.059Z,24.95
2023-02-13T15:30:55.154Z,27.80
2023-02-13T15:33:22.709Z,25.42
2023-02-13T15:36:03.075Z,23.27
2023-02-13T15:38:32.520Z,26.75
2023-02-13T15:41:01.501Z,27.95
2023-02-13T15:43:32.968Z,26.70
2023-02-13T15:46:01.677Z,26.38
2023-02-13T15:48:28.900Z,27.10
2023-02-13T15:50:55.580Z,27.73
2023-02-13T15:53:22.353Z,27.10
2023-02-13T15:55:59.375Z,25.83
2023-02-13T15:58:29.265Z,27.25
2023-02-13T16:00:56.877Z,30.17
2023-02-13T16:03:25.218Z,32.83
2023-02-13T16:05:51.722Z,29.48
2023-02-13T16:08:26.964Z,31.00
2023-02-13T16:11:10.056Z,29.02
2023-02-13T16:13:36.871Z,29.73
2023-02-13T16:16:08.936Z,34.47
2023-02-13T16:18:35.395Z,31.95
2023-02-13T16:21:06.174Z,34.33
2023-02-13T16:23:32.542Z,27.75
2023-02-13T16:26:04.076Z,31.00
2023-02-13T16:28:32.645Z,34.00
2023-02-13T16:31:00.556Z,31.60
2023-02-13T16:33:29.077Z,29.60
2023-02-13T16:35:55.723Z,32.05
2023-02-13T16:38:35.676Z,34.33
2023-02-13T16:41:17.505Z,27.33
2023-02-13T16:43:48.133Z,30.13
2023-02-13T16:46:20.508Z,27.20
2023-02-13T16:48:48.548Z,32.47
2023-02-13T16:51:15.720Z,28.60
2023-02-13T16:53:42.199Z,30.52
2023-02-13T16:56:10.648Z,33.50
2023-02-13T16:58:37.083Z,29.20
2023-02-13T17:01:04.521Z,26.33
2023-02-13T17:03:32.106Z,30.65
2023-02-13T17:06:02.259Z,31.92
2023-02-13T17:08:30.292Z,31.10
2023-02-13T17:11:02.458Z,27.05
2023-02-13T17:13:29.114Z,27.65
2023-02-13T17:15:55.651Z,26.30
2023-02-13T17:18:22.229Z,26.30
2023-02-13T17:20:49.610Z,29.95
2023-02-13T17:23:17.695Z,27.40
2023-02-13T17:25:46.156Z,29.52
2023-02-13T17:28:14.342Z,29.67
2023-02-13T17:30:41.353Z,28.98
2023-02-13T17:33:11.824Z,30.10
2023-02-13T17:35:38.184Z,29.40
2023-02-13T17:38:06.191Z,34.05
2023-02-13T17:40:32.538Z,30.33
2023-02-13T17:42:59.226Z,31.10
2023-02-13T17:45:27.526Z,30.00
2023-02-13T17:47:53.903Z,29.70
2023-02-13T17:50:20.748Z,29.85
2023-02-13T17:52:48.944Z,29.55
2023-02-13T17:55:21.343Z,29.48
2023-02-13T17:57:48.310Z,32.53
2023-02-13T18:00:17.063Z,31.67
2023-02-13T18:02:43.686Z,31.27
2023-02-13T18:05:10.299Z,34.63
2023-02-13T18:07:36.689Z,30.95
2023-02-13T18:10:03.500Z,31.92
2023-02-13T18:12:29.843Z,28.73
2023-02-13T18:14:56.166Z,30.42
2023-02-13T18:17:22.557Z,29.30
2023-02-13T18:19:50.476Z,31.98
2023-02-13T18:22:16.826Z,32.30
2023-02-13T18:24:43.346Z,32.15
2023-02-13T18:27:12.927Z,31.15
2023-02-13T18:29:39.395Z,32.17
2023-02-13T18:32:10.206Z,36.55
2023-02-13T18:34:37.098Z,34.97
2023-02-13T18:37:05.012Z,39.85
2023-02-13T18:39:32.598Z,37.88
2023-02-13T18:41:59.020Z,40.40
2023-02-13T18:44:28.610Z,37.78
2023-02-13T18:46:55.708Z,38.47
2023-02-13T18:49:22.034Z,40.50
2023-02-13T18:51:48.523Z,44.75
2023-02-13T18:54:14.977Z,41.95
2023-02-13T18:56:41.411Z,42.58
2023-02-13T18:59:07.783Z,41.35
2023-02-13T19:01:35.406Z,39.17
2023-02-13T19:04:03.341Z,44.00
2023-02-13T19:06:29.714Z,47.55
2023-02-13T19:08:56.644Z,42.13
2023-02-13T19:11:24.176Z,41.42
2023-02-13T19:13:56.483Z,48.45
2023-02-13T19:16:23.454Z,46.13
2023-02-13T19:18:53.184Z,47.47
2023-02-13T19:21:20.666Z,42.80
2023-02-13T19:23:47.033Z,45.45
2023-02-13T19:26:15.442Z,45.80
2023-02-13T19:28:42.368Z,45.20
2023-02-13T19:31:10.316Z,46.05
2023-02-13T19:33:37.689Z,44.78
2023-02-13T19:36:05.779Z,50.60
2023-02-13T19:38:32.369Z,50.95
2023-02-13T19:41:03.112Z,52.58
2023-02-13T19:43:29.513Z,50.47
2023-02-13T19:45:55.843Z,52.22
2023-02-13T19:48:22.213Z,52.63
2023-02-13T19:50:48.729Z,57.28
2023-02-13T19:53:16.311Z,60.30
2023-02-13T19:55:42.757Z,59.45
2023-02-13T19:58:09.276Z,59.78
2023-02-13T20:00:35.927Z,57.63
2023-02-13T20:03:15.604Z,67.18
2023-02-13T20:05:51.201Z,82.97
2023-02-13T20:10:50.474Z,88.85
2023-02-13T20:13:16.865Z,87.63
2023-02-13T20:15:43.275Z,99.75
2023-02-13T20:18:09.706Z,92.43
2023-02-13T20:20:38.786Z,78.15
2023-02-13T20:23:06.090Z,82.65
2023-02-13T20:25:33.143Z,83.82
2023-02-13T20:27:59.628Z,84.13
2023-02-13T20:30:26.119Z,96.15
2023-02-13T20:32:52.534Z,95.13
2023-02-13T20:35:19.022Z,82.63
2023-02-13T20:37:45.759Z,83.15
2023-02-13T20:40:13.635Z,70.47
2023-02-13T20:42:40.212Z,64.13
2023-02-13T20:45:06.901Z,72.50
2023-02-13T20:47:33.270Z,73.25
2023-02-13T20:50:04.188Z,71.32
2023-02-13T20:52:30.891Z,79.93
2023-02-13T20:54:58.564Z,79.55
2023-02-13T20:57:24.937Z,81.60
2023-02-13T20:59:51.261Z,86.93
2023-02-13T21:02:19.569Z,86.03
2023-02-13T21:04:46.429Z,83.95
2023-02-13T21:07:12.733Z,85.30
2023-02-13T21:09:39.144Z,85.22
2023-02-13T21:12:05.688Z,83.68
2023-02-13T21:14:32.001Z,80.53
2023-02-13T21:16:58.568Z,79.30
2023-02-13T21:19:24.956Z,76.95
2023-02-13T21:21:51.317Z,77.45
2023-02-13T21:24:20.209Z,80.35
2023-02-13T21:26:47.369Z,73.93
2023-02-13T21:29:13.742Z,71.15
2023-02-13T21:31:47.697Z,72.88
2023-02-13T21:34:14.683Z,71.13
2023-02-13T21:36:41.008Z,72.28
2023-02-13T21:39:08.098Z,69.82
2023-02-13T21:41:34.890Z,67.38
2023-02-13T21:44:01.236Z,65.43
2023-02-13T21:46:28.994Z,63.95
2023-02-13T21:48:58.318Z,63.60
2023-02-13T21:51:25.532Z,65.45
2023-02-13T21:53:52.418Z,60.17
2023-02-13T21:56:20.479Z,64.00
2023-02-13T21:58:47.278Z,67.28
2023-02-13T22:01:23.928Z,63.03
2023-02-13T22:03:51.941Z,68.60
2023-02-13T22:06:19.797Z,64.25
2023-02-13T22:08:46.207Z,65.43
2023-02-13T22:11:12.633Z,65.18
2023-02-13T22:13:41.950Z,54.85
2023-02-13T22:16:09.628Z,65.53
2023-02-13T22:18:37.919Z,63.33
2023-02-13T22:21:07.428Z,62.67
2023-02-13T22:23:36.463Z,58.55
2023-02-13T22:26:04.120Z,59.67
2023-02-13T22:28:30.626Z,66.90
2023-02-13T22:30:57.453Z,61.65
2023-02-13T22:33:24.425Z,64.50
2023-02-13T22:35:51.183Z,60.47
2023-02-13T22:38:17.640Z,61.40
2023-02-13T22:40:44.338Z,63.00
2023-02-13T22:43:10.716Z,64.28
2023-02-13T22:45:37.562Z,58.90
2023-02-13T22:48:04.950Z,67.32
2023-02-13T22:50:31.444Z,55.78
2023-02-13T22:52:58.180Z,55.67
2023-02-13T22:55:24.522Z,58.20
2023-02-13T22:57:54.274Z,62.58
2023-02-13T23:00:22.335Z,59.08
2023-02-13T23:02:49.317Z,63.33
2023-02-13T23:05:16.988Z,56.78
2023-02-13T23:07:43.363Z,71.45
2023-02-13T23:10:10.013Z,63.60
2023-02-13T23:12:36.468Z,61.65
2023-02-13T23:15:04.413Z,59.63
2023-02-13T23:17:49.677Z,57.17
2023-02-13T23:20:16.598Z,60.83
2023-02-13T23:22:42.926Z,57.53
2023-02-13T23:25:09.357Z,59.72
2023-02-13T23:27:35.977Z,58.90
2023-02-13T23:30:02.463Z,55.72
2023-02-13T23:32:28.855Z,52.20
2023-02-13T23:34:55.211Z,53.20
2023-02-13T23:37:21.632Z,61.70
2023-02-13T23:39:48.002Z,60.13
2023-02-13T23:42:14.358Z,59.33
2023-02-13T23:44:40.777Z,56.38
2023-02-13T23:47:07.176Z,58.83
2023-02-13T23:49:33.546Z,60.50
2023-02-13T23:51:59.897Z,56.88
2023-02-13T23:54:26.667Z,57.67
2023-02-13T23:56:54.359Z,58.35
2023-02-13T23:59:21.570Z,59.47
